sensor_id;sensor_type;location;lat;lon;timestamp;P1;durP1;ratioP1;P2;durP2;ratioP2
22660;SDS011;11497;52.222;21.246;2023-05-10T00:01:50;9.80;;;6.20;;
22660;SDS011;11497;52.222;21.246;2023-05-10T00:04:18;9.40;;;6.50;;
22660;SDS011;11497;52.222;21.246;2023-05-10T00:06:46;12.35;;;6.32;;
22660;SDS011;11497;52.222;21.246;2023-05-10T00:09:14;14.73;;;7.05;;
22660;SDS011;11497;52.222;21.246;2023-05-10T00:11:42;13.60;;;6.50;;
22660;SDS011;11497;52.222;21.246;2023-05-10T00:14:10;12.20;;;6.43;;
22660;SDS011;11497;52.222;21.246;2023-05-10T00:16:38;11.38;;;6.28;;
22660;SDS011;11497;52.222;21.246;2023-05-10T00:19:07;14.13;;;6.72;;
22660;SDS011;11497;52.222;21.246;2023-05-10T00:21:35;12.63;;;6.78;;
22660;SDS011;11497;52.222;21.246;2023-05-10T00:24:03;11.10;;;6.60;;
22660;SDS011;11497;52.222;21.246;2023-05-10T00:26:31;9.90;;;6.00;;
22660;SDS011;11497;52.222;21.246;2023-05-10T00:29:00;11.32;;;6.07;;
22660;SDS011;11497;52.222;21.246;2023-05-10T00:31:27;14.30;;;6.65;;
22660;SDS011;11497;52.222;21.246;2023-05-10T00:33:56;12.10;;;5.75;;
22660;SDS011;11497;52.222;21.246;2023-05-10T00:36:24;10.60;;;6.53;;
22660;SDS011;11497;52.222;21.246;2023-05-10T00:38:52;12.57;;;6.30;;
22660;SDS011;11497;52.222;21.246;2023-05-10T00:41:20;9.15;;;6.40;;
22660;SDS011;11497;52.222;21.246;2023-05-10T00:43:49;10.27;;;6.63;;
22660;SDS011;11497;52.222;21.246;2023-05-10T00:46:17;10.38;;;5.88;;
22660;SDS011;11497;52.222;21.246;2023-05-10T00:48:45;9.23;;;5.43;;
22660;SDS011;11497;52.222;21.246;2023-05-10T00:51:13;11.15;;;5.93;;
22660;SDS011;11497;52.222;21.246;2023-05-10T00:53:41;12.43;;;6.00;;
22660;SDS011;11497;52.222;21.246;2023-05-10T00:56:10;11.43;;;6.40;;
22660;SDS011;11497;52.222;21.246;2023-05-10T00:58:39;18.85;;;5.93;;
22660;SDS011;11497;52.222;21.246;2023-05-10T01:01:08;8.70;;;5.95;;
22660;SDS011;11497;52.222;21.246;2023-05-10T01:03:37;10.02;;;6.05;;
22660;SDS011;11497;52.222;21.246;2023-05-10T01:06:06;8.57;;;5.40;;
22660;SDS011;11497;52.222;21.246;2023-05-10T01:08:36;12.93;;;5.68;;
22660;SDS011;11497;52.222;21.246;2023-05-10T01:11:04;8.85;;;6.07;;
22660;SDS011;11497;52.222;21.246;2023-05-10T01:13:34;8.48;;;5.60;;
22660;SDS011;11497;52.222;21.246;2023-05-10T01:16:04;9.40;;;5.28;;
22660;SDS011;11497;52.222;21.246;2023-05-10T01:18:35;13.00;;;6.60;;
22660;SDS011;11497;52.222;21.246;2023-05-10T01:32:43;9.63;;;6.10;;
22660;SDS011;11497;52.222;21.246;2023-05-10T01:35:43;9.23;;;5.32;;
22660;SDS011;11497;52.222;21.246;2023-05-10T01:38:37;9.93;;;5.70;;
22660;SDS011;11497;52.222;21.246;2023-05-10T01:41:14;9.90;;;5.90;;
22660;SDS011;11497;52.222;21.246;2023-05-10T01:46:52;14.50;;;5.75;;
22660;SDS011;11497;52.222;21.246;2023-05-10T01:49:32;11.75;;;5.80;;
22660;SDS011;11497;52.222;21.246;2023-05-10T01:52:08;8.13;;;5.68;;
22660;SDS011;11497;52.222;21.246;2023-05-10T01:54:38;9.95;;;5.50;;
22660;SDS011;11497;52.222;21.246;2023-05-10T01:57:11;11.00;;;6.10;;
22660;SDS011;11497;52.222;21.246;2023-05-10T01:59:42;6.75;;;5.50;;
22660;SDS011;11497;52.222;21.246;2023-05-10T02:02:12;10.85;;;5.78;;
22660;SDS011;11497;52.222;21.246;2023-05-10T02:04:43;10.38;;;5.68;;
22660;SDS011;11497;52.222;21.246;2023-05-10T02:07:13;8.20;;;5.50;;
22660;SDS011;11497;52.222;21.246;2023-05-10T02:09:42;11.25;;;5.63;;
22660;SDS011;11497;52.222;21.246;2023-05-10T02:12:15;9.98;;;5.95;;
22660;SDS011;11497;52.222;21.246;2023-05-10T02:14:44;7.95;;;5.50;;
22660;SDS011;11497;52.222;21.246;2023-05-10T02:17:14;8.75;;;5.50;;
22660;SDS011;11497;52.222;21.246;2023-05-10T02:19:43;8.98;;;5.50;;
22660;SDS011;11497;52.222;21.246;2023-05-10T02:22:13;8.15;;;5.40;;
22660;SDS011;11497;52.222;21.246;2023-05-10T02:24:43;11.95;;;5.70;;
22660;SDS011;11497;52.222;21.246;2023-05-10T02:27:13;11.52;;;5.85;;
22660;SDS011;11497;52.222;21.246;2023-05-10T02:29:42;9.82;;;5.30;;
22660;SDS011;11497;52.222;21.246;2023-05-10T02:32:11;11.13;;;6.18;;
22660;SDS011;11497;52.222;21.246;2023-05-10T02:34:40;9.07;;;5.70;;
22660;SDS011;11497;52.222;21.246;2023-05-10T02:37:09;9.43;;;5.45;;
22660;SDS011;11497;52.222;21.246;2023-05-10T02:39:38;7.97;;;5.10;;
22660;SDS011;11497;52.222;21.246;2023-05-10T02:42:15;9.88;;;5.53;;
22660;SDS011;11497;52.222;21.246;2023-05-10T02:44:45;9.35;;;5.97;;
22660;SDS011;11497;52.222;21.246;2023-05-10T02:47:16;7.60;;;5.25;;
22660;SDS011;11497;52.222;21.246;2023-05-10T02:49:45;10.15;;;5.85;;
22660;SDS011;11497;52.222;21.246;2023-05-10T02:52:15;8.25;;;5.35;;
22660;SDS011;11497;52.222;21.246;2023-05-10T02:54:48;9.35;;;5.20;;
22660;SDS011;11497;52.222;21.246;2023-05-10T02:57:20;9.18;;;5.35;;
22660;SDS011;11497;52.222;21.246;2023-05-10T02:59:53;10.20;;;5.53;;
22660;SDS011;11497;52.222;21.246;2023-05-10T03:02:21;10.35;;;5.47;;
22660;SDS011;11497;52.222;21.246;2023-05-10T03:04:49;11.45;;;5.25;;
22660;SDS011;11497;52.222;21.246;2023-05-10T03:07:18;7.75;;;5.20;;
22660;SDS011;11497;52.222;21.246;2023-05-10T03:09:48;13.05;;;5.85;;
22660;SDS011;11497;52.222;21.246;2023-05-10T03:12:20;10.50;;;5.60;;
22660;SDS011;11497;52.222;21.246;2023-05-10T03:18:07;12.07;;;5.50;;
22660;SDS011;11497;52.222;21.246;2023-05-10T03:20:45;10.43;;;5.47;;
22660;SDS011;11497;52.222;21.246;2023-05-10T03:23:26;11.20;;;5.00;;
22660;SDS011;11497;52.222;21.246;2023-05-10T03:26:01;9.00;;;5.93;;
22660;SDS011;11497;52.222;21.246;2023-05-10T03:28:31;10.63;;;6.25;;
22660;SDS011;11497;52.222;21.246;2023-05-10T03:31:02;14.65;;;5.93;;
22660;SDS011;11497;52.222;21.246;2023-05-10T03:33:33;7.93;;;4.93;;
22660;SDS011;11497;52.222;21.246;2023-05-10T03:36:01;9.27;;;5.50;;
22660;SDS011;11497;52.222;21.246;2023-05-10T03:38:29;14.13;;;5.43;;
22660;SDS011;11497;52.222;21.246;2023-05-10T03:40:56;9.65;;;5.90;;
22660;SDS011;11497;52.222;21.246;2023-05-10T03:43:24;9.65;;;5.93;;
22660;SDS011;11497;52.222;21.246;2023-05-10T03:45:52;8.80;;;5.45;;
22660;SDS011;11497;52.222;21.246;2023-05-10T03:48:21;10.75;;;5.85;;
22660;SDS011;11497;52.222;21.246;2023-05-10T03:50:49;11.88;;;5.47;;
22660;SDS011;11497;52.222;21.246;2023-05-10T03:53:16;10.60;;;5.30;;
22660;SDS011;11497;52.222;21.246;2023-05-10T03:55:44;10.93;;;5.53;;
22660;SDS011;11497;52.222;21.246;2023-05-10T03:58:13;11.95;;;5.63;;
22660;SDS011;11497;52.222;21.246;2023-05-10T04:00:42;9.65;;;5.68;;
22660;SDS011;11497;52.222;21.246;2023-05-10T04:03:13;9.43;;;5.55;;
22660;SDS011;11497;52.222;21.246;2023-05-10T04:05:41;9.88;;;5.30;;
22660;SDS011;11497;52.222;21.246;2023-05-10T04:08:10;10.10;;;5.65;;
22660;SDS011;11497;52.222;21.246;2023-05-10T04:10:39;8.90;;;5.57;;
22660;SDS011;11497;52.222;21.246;2023-05-10T04:13:07;10.13;;;5.80;;
22660;SDS011;11497;52.222;21.246;2023-05-10T04:15:34;9.13;;;5.93;;
22660;SDS011;11497;52.222;21.246;2023-05-10T04:18:03;8.45;;;5.63;;
22660;SDS011;11497;52.222;21.246;2023-05-10T04:20:34;12.07;;;5.65;;
22660;SDS011;11497;52.222;21.246;2023-05-10T04:23:02;9.07;;;5.75;;
22660;SDS011;11497;52.222;21.246;2023-05-10T04:25:29;15.85;;;5.63;;
22660;SDS011;11497;52.222;21.246;2023-05-10T04:28:00;9.35;;;5.45;;
22660;SDS011;11497;52.222;21.246;2023-05-10T04:30:28;10.75;;;5.15;;
22660;SDS011;11497;52.222;21.246;2023-05-10T04:32:56;12.43;;;5.43;;
22660;SDS011;11497;52.222;21.246;2023-05-10T04:35:24;9.35;;;5.32;;
22660;SDS011;11497;52.222;21.246;2023-05-10T04:37:53;11.18;;;5.18;;
22660;SDS011;11497;52.222;21.246;2023-05-10T04:40:21;12.27;;;5.43;;
22660;SDS011;11497;52.222;21.246;2023-05-10T04:42:49;10.65;;;5.07;;
22660;SDS011;11497;52.222;21.246;2023-05-10T04:45:16;10.73;;;4.88;;
22660;SDS011;11497;52.222;21.246;2023-05-10T04:47:44;11.38;;;5.20;;
22660;SDS011;11497;52.222;21.246;2023-05-10T04:50:12;13.75;;;5.72;;
22660;SDS011;11497;52.222;21.246;2023-05-10T04:52:40;6.32;;;4.78;;
22660;SDS011;11497;52.222;21.246;2023-05-10T04:55:08;8.25;;;5.03;;
22660;SDS011;11497;52.222;21.246;2023-05-10T04:57:37;10.23;;;5.45;;
22660;SDS011;11497;52.222;21.246;2023-05-10T05:00:04;8.07;;;5.47;;
22660;SDS011;11497;52.222;21.246;2023-05-10T05:02:35;7.85;;;4.82;;
22660;SDS011;11497;52.222;21.246;2023-05-10T05:05:03;8.75;;;5.07;;
22660;SDS011;11497;52.222;21.246;2023-05-10T05:07:31;9.20;;;5.43;;
22660;SDS011;11497;52.222;21.246;2023-05-10T05:09:59;12.73;;;5.25;;
22660;SDS011;11497;52.222;21.246;2023-05-10T05:12:27;6.88;;;4.45;;
22660;SDS011;11497;52.222;21.246;2023-05-10T05:14:54;8.88;;;4.70;;
22660;SDS011;11497;52.222;21.246;2023-05-10T05:17:22;6.97;;;4.50;;
22660;SDS011;11497;52.222;21.246;2023-05-10T05:19:50;9.73;;;5.05;;
22660;SDS011;11497;52.222;21.246;2023-05-10T05:22:18;11.77;;;4.60;;
22660;SDS011;11497;52.222;21.246;2023-05-10T05:24:53;9.18;;;5.05;;
22660;SDS011;11497;52.222;21.246;2023-05-10T05:27:22;8.90;;;5.20;;
22660;SDS011;11497;52.222;21.246;2023-05-10T05:29:52;7.57;;;4.50;;
22660;SDS011;11497;52.222;21.246;2023-05-10T05:32:20;9.93;;;5.22;;
22660;SDS011;11497;52.222;21.246;2023-05-10T05:34:49;13.23;;;4.53;;
22660;SDS011;11497;52.222;21.246;2023-05-10T05:37:18;12.20;;;4.80;;
22660;SDS011;11497;52.222;21.246;2023-05-10T05:39:47;14.65;;;4.90;;
22660;SDS011;11497;52.222;21.246;2023-05-10T05:42:15;21.27;;;4.70;;
22660;SDS011;11497;52.222;21.246;2023-05-10T05:44:45;15.20;;;4.55;;
22660;SDS011;11497;52.222;21.246;2023-05-10T05:47:13;14.75;;;4.90;;
22660;SDS011;11497;52.222;21.246;2023-05-10T05:49:41;21.55;;;5.63;;
22660;SDS011;11497;52.222;21.246;2023-05-10T05:52:09;20.67;;;5.20;;
22660;SDS011;11497;52.222;21.246;2023-05-10T05:54:37;12.32;;;4.40;;
22660;SDS011;11497;52.222;21.246;2023-05-10T05:57:05;12.68;;;4.50;;
22660;SDS011;11497;52.222;21.246;2023-05-10T05:59:33;12.10;;;4.60;;
22660;SDS011;11497;52.222;21.246;2023-05-10T06:02:01;16.85;;;4.63;;
22660;SDS011;11497;52.222;21.246;2023-05-10T06:04:29;9.50;;;4.28;;
22660;SDS011;11497;52.222;21.246;2023-05-10T06:06:57;9.73;;;4.10;;
22660;SDS011;11497;52.222;21.246;2023-05-10T06:09:25;8.57;;;4.18;;
22660;SDS011;11497;52.222;21.246;2023-05-10T06:11:53;8.05;;;4.18;;
22660;SDS011;11497;52.222;21.246;2023-05-10T06:14:20;11.75;;;4.47;;
22660;SDS011;11497;52.222;21.246;2023-05-10T06:16:49;9.20;;;4.25;;
22660;SDS011;11497;52.222;21.246;2023-05-10T06:19:17;14.00;;;3.75;;
22660;SDS011;11497;52.222;21.246;2023-05-10T06:21:44;8.80;;;4.00;;
22660;SDS011;11497;52.222;21.246;2023-05-10T06:24:12;9.10;;;3.70;;
22660;SDS011;11497;52.222;21.246;2023-05-10T06:26:40;14.05;;;3.92;;
22660;SDS011;11497;52.222;21.246;2023-05-10T06:29:08;7.57;;;3.70;;
22660;SDS011;11497;52.222;21.246;2023-05-10T06:31:36;6.90;;;3.33;;
22660;SDS011;11497;52.222;21.246;2023-05-10T06:34:04;8.13;;;3.90;;
22660;SDS011;11497;52.222;21.246;2023-05-10T06:36:34;8.02;;;3.47;;
22660;SDS011;11497;52.222;21.246;2023-05-10T06:39:02;7.85;;;3.83;;
22660;SDS011;11497;52.222;21.246;2023-05-10T06:41:30;9.15;;;4.00;;
22660;SDS011;11497;52.222;21.246;2023-05-10T06:43:58;14.05;;;4.07;;
22660;SDS011;11497;52.222;21.246;2023-05-10T06:46:26;10.48;;;3.88;;
22660;SDS011;11497;52.222;21.246;2023-05-10T06:48:54;9.00;;;3.75;;
22660;SDS011;11497;52.222;21.246;2023-05-10T06:51:22;11.70;;;4.00;;
22660;SDS011;11497;52.222;21.246;2023-05-10T06:53:49;6.40;;;3.30;;
22660;SDS011;11497;52.222;21.246;2023-05-10T06:56:17;10.77;;;3.67;;
22660;SDS011;11497;52.222;21.246;2023-05-10T06:58:48;7.35;;;3.53;;
22660;SDS011;11497;52.222;21.246;2023-05-10T07:01:16;11.75;;;3.03;;
22660;SDS011;11497;52.222;21.246;2023-05-10T07:03:44;7.60;;;3.10;;
22660;SDS011;11497;52.222;21.246;2023-05-10T07:06:12;7.22;;;3.00;;
22660;SDS011;11497;52.222;21.246;2023-05-10T07:08:58;5.60;;;3.28;;
22660;SDS011;11497;52.222;21.246;2023-05-10T07:11:27;8.13;;;3.38;;
22660;SDS011;11497;52.222;21.246;2023-05-10T07:13:55;6.75;;;3.30;;
22660;SDS011;11497;52.222;21.246;2023-05-10T07:16:23;4.70;;;2.92;;
22660;SDS011;11497;52.222;21.246;2023-05-10T07:18:50;7.78;;;2.60;;
22660;SDS011;11497;52.222;21.246;2023-05-10T07:21:19;11.85;;;2.92;;
22660;SDS011;11497;52.222;21.246;2023-05-10T07:23:50;9.98;;;3.08;;
22660;SDS011;11497;52.222;21.246;2023-05-10T07:26:18;13.65;;;2.88;;
22660;SDS011;11497;52.222;21.246;2023-05-10T07:28:47;5.72;;;2.90;;
22660;SDS011;11497;52.222;21.246;2023-05-10T07:31:15;4.72;;;2.83;;
22660;SDS011;11497;52.222;21.246;2023-05-10T07:33:43;8.00;;;2.78;;
22660;SDS011;11497;52.222;21.246;2023-05-10T07:36:11;7.63;;;2.22;;
22660;SDS011;11497;52.222;21.246;2023-05-10T07:38:39;7.03;;;2.53;;
22660;SDS011;11497;52.222;21.246;2023-05-10T07:41:07;7.28;;;2.70;;
22660;SDS011;11497;52.222;21.246;2023-05-10T07:43:35;3.78;;;2.40;;
22660;SDS011;11497;52.222;21.246;2023-05-10T07:46:03;6.22;;;2.80;;
22660;SDS011;11497;52.222;21.246;2023-05-10T07:48:31;7.60;;;2.70;;
22660;SDS011;11497;52.222;21.246;2023-05-10T07:50:59;5.40;;;2.42;;
22660;SDS011;11497;52.222;21.246;2023-05-10T07:53:27;4.30;;;2.50;;
22660;SDS011;11497;52.222;21.246;2023-05-10T07:55:58;10.07;;;2.72;;
22660;SDS011;11497;52.222;21.246;2023-05-10T07:58:26;5.07;;;2.50;;
22660;SDS011;11497;52.222;21.246;2023-05-10T08:00:54;8.35;;;2.92;;
22660;SDS011;11497;52.222;21.246;2023-05-10T08:03:22;8.10;;;3.28;;
22660;SDS011;11497;52.222;21.246;2023-05-10T08:05:51;9.38;;;3.20;;
22660;SDS011;11497;52.222;21.246;2023-05-10T08:08:18;7.82;;;2.60;;
22660;SDS011;11497;52.222;21.246;2023-05-10T08:10:48;4.50;;;2.40;;
22660;SDS011;11497;52.222;21.246;2023-05-10T08:13:16;5.78;;;2.42;;
22660;SDS011;11497;52.222;21.246;2023-05-10T08:15:44;16.10;;;2.97;;
22660;SDS011;11497;52.222;21.246;2023-05-10T08:18:11;6.43;;;2.83;;
22660;SDS011;11497;52.222;21.246;2023-05-10T08:20:39;9.85;;;2.88;;
22660;SDS011;11497;52.222;21.246;2023-05-10T08:23:07;9.68;;;2.90;;
22660;SDS011;11497;52.222;21.246;2023-05-10T08:25:35;4.82;;;2.40;;
22660;SDS011;11497;52.222;21.246;2023-05-10T08:28:03;6.25;;;2.70;;
22660;SDS011;11497;52.222;21.246;2023-05-10T08:30:31;5.75;;;2.80;;
22660;SDS011;11497;52.222;21.246;2023-05-10T08:32:58;4.70;;;2.40;;
22660;SDS011;11497;52.222;21.246;2023-05-10T08:35:27;4.55;;;2.67;;
22660;SDS011;11497;52.222;21.246;2023-05-10T08:37:54;4.10;;;2.45;;
22660;SDS011;11497;52.222;21.246;2023-05-10T08:40:22;6.03;;;2.60;;
22660;SDS011;11497;52.222;21.246;2023-05-10T08:42:58;5.18;;;2.72;;
22660;SDS011;11497;52.222;21.246;2023-05-10T08:45:38;7.43;;;2.60;;
22660;SDS011;11497;52.222;21.246;2023-05-10T08:48:08;9.73;;;3.78;;
22660;SDS011;11497;52.222;21.246;2023-05-10T08:50:38;7.53;;;2.70;;
22660;SDS011;11497;52.222;21.246;2023-05-10T08:53:08;4.90;;;2.60;;
22660;SDS011;11497;52.222;21.246;2023-05-10T08:55:38;6.15;;;2.70;;
22660;SDS011;11497;52.222;21.246;2023-05-10T08:58:06;6.00;;;2.83;;
22660;SDS011;11497;52.222;21.246;2023-05-10T09:00:35;6.25;;;2.55;;
22660;SDS011;11497;52.222;21.246;2023-05-10T09:03:04;8.77;;;2.72;;
22660;SDS011;11497;52.222;21.246;2023-05-10T09:05:33;6.57;;;3.03;;
22660;SDS011;11497;52.222;21.246;2023-05-10T09:08:03;5.22;;;2.75;;
22660;SDS011;11497;52.222;21.246;2023-05-10T09:10:33;5.65;;;2.13;;
22660;SDS011;11497;52.222;21.246;2023-05-10T09:13:01;4.65;;;2.70;;
22660;SDS011;11497;52.222;21.246;2023-05-10T09:15:30;6.50;;;2.80;;
22660;SDS011;11497;52.222;21.246;2023-05-10T09:17:58;5.07;;;2.42;;
22660;SDS011;11497;52.222;21.246;2023-05-10T09:20:29;5.57;;;2.35;;
22660;SDS011;11497;52.222;21.246;2023-05-10T09:22:57;3.78;;;2.83;;
22660;SDS011;11497;52.222;21.246;2023-05-10T09:25:25;6.72;;;2.60;;
22660;SDS011;11497;52.222;21.246;2023-05-10T09:27:53;5.50;;;2.30;;
22660;SDS011;11497;52.222;21.246;2023-05-10T09:30:29;7.82;;;2.58;;
22660;SDS011;11497;52.222;21.246;2023-05-10T09:32:58;5.25;;;2.50;;
22660;SDS011;11497;52.222;21.246;2023-05-10T09:35:28;3.85;;;2.35;;
22660;SDS011;11497;52.222;21.246;2023-05-10T09:38:03;4.90;;;2.20;;
22660;SDS011;11497;52.222;21.246;2023-05-10T09:40:32;4.28;;;2.20;;
22660;SDS011;11497;52.222;21.246;2023-05-10T09:43:03;5.78;;;2.35;;
22660;SDS011;11497;52.222;21.246;2023-05-10T09:45:35;10.13;;;3.35;;
22660;SDS011;11497;52.222;21.246;2023-05-10T09:48:04;5.15;;;2.38;;
22660;SDS011;11497;52.222;21.246;2023-05-10T09:50:33;5.78;;;2.40;;
22660;SDS011;11497;52.222;21.246;2023-05-10T09:53:02;5.55;;;2.47;;
22660;SDS011;11497;52.222;21.246;2023-05-10T09:55:43;4.00;;;2.60;;
22660;SDS011;11497;52.222;21.246;2023-05-10T09:58:13;9.05;;;2.80;;
22660;SDS011;11497;52.222;21.246;2023-05-10T10:00:42;7.60;;;2.75;;
22660;SDS011;11497;52.222;21.246;2023-05-10T10:03:14;6.53;;;2.42;;
22660;SDS011;11497;52.222;21.246;2023-05-10T10:05:44;3.57;;;2.53;;
22660;SDS011;11497;52.222;21.246;2023-05-10T10:08:13;7.22;;;2.95;;
22660;SDS011;11497;52.222;21.246;2023-05-10T10:10:42;6.65;;;2.80;;
22660;SDS011;11497;52.222;21.246;2023-05-10T10:13:13;4.43;;;2.70;;
22660;SDS011;11497;52.222;21.246;2023-05-10T10:15:42;5.82;;;2.95;;
22660;SDS011;11497;52.222;21.246;2023-05-10T10:18:17;6.15;;;2.40;;
22660;SDS011;11497;52.222;21.246;2023-05-10T10:20:50;6.75;;;2.60;;
22660;SDS011;11497;52.222;21.246;2023-05-10T10:23:18;8.93;;;2.95;;
22660;SDS011;11497;52.222;21.246;2023-05-10T10:25:46;11.80;;;3.17;;
22660;SDS011;11497;52.222;21.246;2023-05-10T10:28:26;22.35;;;4.35;;
22660;SDS011;11497;52.222;21.246;2023-05-10T10:31:32;6.35;;;2.40;;
22660;SDS011;11497;52.222;21.246;2023-05-10T10:34:26;7.45;;;2.40;;
22660;SDS011;11497;52.222;21.246;2023-05-10T10:36:56;8.10;;;3.03;;
22660;SDS011;11497;52.222;21.246;2023-05-10T10:39:30;3.40;;;2.63;;
22660;SDS011;11497;52.222;21.246;2023-05-10T10:41:58;3.90;;;2.50;;
22660;SDS011;11497;52.222;21.246;2023-05-10T10:52:14;7.07;;;2.58;;
22660;SDS011;11497;52.222;21.246;2023-05-10T10:54:51;10.00;;;2.50;;
22660;SDS011;11497;52.222;21.246;2023-05-10T10:57:20;4.63;;;2.42;;
22660;SDS011;11497;52.222;21.246;2023-05-10T10:59:48;7.40;;;2.83;;
22660;SDS011;11497;52.222;21.246;2023-05-10T11:02:42;6.85;;;2.58;;
22660;SDS011;11497;52.222;21.246;2023-05-10T11:07:52;11.02;;;2.72;;
22660;SDS011;11497;52.222;21.246;2023-05-10T11:10:25;10.20;;;2.92;;
22660;SDS011;11497;52.222;21.246;2023-05-10T11:13:03;10.93;;;2.67;;
22660;SDS011;11497;52.222;21.246;2023-05-10T11:15:35;7.47;;;2.70;;
22660;SDS011;11497;52.222;21.246;2023-05-10T11:20:52;3.70;;;2.70;;
22660;SDS011;11497;52.222;21.246;2023-05-10T11:23:32;7.38;;;2.90;;
22660;SDS011;11497;52.222;21.246;2023-05-10T11:26:18;7.28;;;2.80;;
22660;SDS011;11497;52.222;21.246;2023-05-10T11:28:50;8.88;;;3.00;;
22660;SDS011;11497;52.222;21.246;2023-05-10T11:31:19;10.75;;;2.72;;
22660;SDS011;11497;52.222;21.246;2023-05-10T11:33:49;7.13;;;3.00;;
22660;SDS011;11497;52.222;21.246;2023-05-10T11:36:19;5.32;;;2.50;;
22660;SDS011;11497;52.222;21.246;2023-05-10T11:38:52;4.03;;;2.00;;
22660;SDS011;11497;52.222;21.246;2023-05-10T11:41:20;8.48;;;2.47;;
22660;SDS011;11497;52.222;21.246;2023-05-10T11:43:49;8.23;;;2.78;;
22660;SDS011;11497;52.222;21.246;2023-05-10T11:46:25;10.70;;;2.95;;
22660;SDS011;11497;52.222;21.246;2023-05-10T11:48:56;4.40;;;2.65;;
22660;SDS011;11497;52.222;21.246;2023-05-10T11:51:28;6.97;;;2.70;;
22660;SDS011;11497;52.222;21.246;2023-05-10T11:53:57;6.93;;;2.50;;
22660;SDS011;11497;52.222;21.246;2023-05-10T11:56:25;10.77;;;2.63;;
22660;SDS011;11497;52.222;21.246;2023-05-10T11:58:54;8.02;;;2.85;;
22660;SDS011;11497;52.222;21.246;2023-05-10T12:01:23;4.47;;;2.90;;
22660;SDS011;11497;52.222;21.246;2023-05-10T12:03:53;8.43;;;2.42;;
22660;SDS011;11497;52.222;21.246;2023-05-10T12:06:29;4.68;;;2.55;;
22660;SDS011;11497;52.222;21.246;2023-05-10T12:08:59;3.58;;;2.45;;
22660;SDS011;11497;52.222;21.246;2023-05-10T12:11:36;9.55;;;2.90;;
22660;SDS011;11497;52.222;21.246;2023-05-10T12:14:10;4.07;;;2.55;;
22660;SDS011;11497;52.222;21.246;2023-05-10T12:16:38;6.63;;;2.65;;
22660;SDS011;11497;52.222;21.246;2023-05-10T12:19:07;7.22;;;2.40;;
22660;SDS011;11497;52.222;21.246;2023-05-10T12:21:34;5.90;;;2.72;;
22660;SDS011;11497;52.222;21.246;2023-05-10T12:24:03;4.68;;;2.63;;
22660;SDS011;11497;52.222;21.246;2023-05-10T12:26:31;8.07;;;2.50;;
22660;SDS011;11497;52.222;21.246;2023-05-10T12:29:12;2.92;;;2.47;;
22660;SDS011;11497;52.222;21.246;2023-05-10T12:31:48;5.35;;;2.75;;
22660;SDS011;11497;52.222;21.246;2023-05-10T12:36:58;5.25;;;2.95;;
22660;SDS011;11497;52.222;21.246;2023-05-10T12:39:36;5.00;;;2.50;;
22660;SDS011;11497;52.222;21.246;2023-05-10T12:42:08;7.10;;;2.55;;
22660;SDS011;11497;52.222;21.246;2023-05-10T12:44:37;8.10;;;3.13;;
22660;SDS011;11497;52.222;21.246;2023-05-10T12:47:05;6.03;;;2.72;;
22660;SDS011;11497;52.222;21.246;2023-05-10T12:49:34;5.70;;;2.90;;
22660;SDS011;11497;52.222;21.246;2023-05-10T12:52:02;4.45;;;2.50;;
22660;SDS011;11497;52.222;21.246;2023-05-10T12:54:30;12.15;;;3.78;;
22660;SDS011;11497;52.222;21.246;2023-05-10T12:56:58;6.25;;;2.80;;
22660;SDS011;11497;52.222;21.246;2023-05-10T12:59:25;7.47;;;2.80;;
22660;SDS011;11497;52.222;21.246;2023-05-10T13:01:53;4.43;;;2.90;;
22660;SDS011;11497;52.222;21.246;2023-05-10T13:04:21;4.82;;;2.90;;
22660;SDS011;11497;52.222;21.246;2023-05-10T13:06:49;4.47;;;3.13;;
22660;SDS011;11497;52.222;21.246;2023-05-10T13:09:17;5.00;;;2.50;;
22660;SDS011;11497;52.222;21.246;2023-05-10T13:11:46;8.18;;;3.15;;
22660;SDS011;11497;52.222;21.246;2023-05-10T13:14:15;7.00;;;2.80;;
22660;SDS011;11497;52.222;21.246;2023-05-10T13:16:43;7.90;;;3.00;;
22660;SDS011;11497;52.222;21.246;2023-05-10T13:19:12;8.60;;;2.80;;
22660;SDS011;11497;52.222;21.246;2023-05-10T13:21:40;5.88;;;3.20;;
22660;SDS011;11497;52.222;21.246;2023-05-10T13:24:08;10.40;;;2.85;;
22660;SDS011;11497;52.222;21.246;2023-05-10T13:26:37;9.70;;;2.80;;
22660;SDS011;11497;52.222;21.246;2023-05-10T13:29:05;7.93;;;2.85;;
22660;SDS011;11497;52.222;21.246;2023-05-10T13:31:33;6.38;;;2.60;;
22660;SDS011;11497;52.222;21.246;2023-05-10T13:34:02;3.15;;;2.40;;
22660;SDS011;11497;52.222;21.246;2023-05-10T13:36:30;4.03;;;2.58;;
22660;SDS011;11497;52.222;21.246;2023-05-10T13:38:58;5.68;;;2.83;;
22660;SDS011;11497;52.222;21.246;2023-05-10T13:41:29;7.40;;;2.42;;
22660;SDS011;11497;52.222;21.246;2023-05-10T13:43:56;7.97;;;2.90;;
22660;SDS011;11497;52.222;21.246;2023-05-10T13:46:24;9.48;;;3.00;;
22660;SDS011;11497;52.222;21.246;2023-05-10T13:48:52;6.03;;;2.90;;
22660;SDS011;11497;52.222;21.246;2023-05-10T13:51:20;8.02;;;2.58;;
22660;SDS011;11497;52.222;21.246;2023-05-10T13:53:48;5.95;;;2.38;;
22660;SDS011;11497;52.222;21.246;2023-05-10T13:56:15;7.18;;;2.70;;
22660;SDS011;11497;52.222;21.246;2023-05-10T13:58:43;6.97;;;2.40;;
22660;SDS011;11497;52.222;21.246;2023-05-10T14:01:11;4.10;;;2.35;;
22660;SDS011;11497;52.222;21.246;2023-05-10T14:03:39;14.07;;;2.65;;
22660;SDS011;11497;52.222;21.246;2023-05-10T14:06:07;16.27;;;3.97;;
22660;SDS011;11497;52.222;21.246;2023-05-10T14:08:35;6.03;;;2.38;;
22660;SDS011;11497;52.222;21.246;2023-05-10T14:11:03;15.88;;;3.00;;
22660;SDS011;11497;52.222;21.246;2023-05-10T14:13:31;8.90;;;2.78;;
22660;SDS011;11497;52.222;21.246;2023-05-10T14:15:59;12.48;;;3.38;;
22660;SDS011;11497;52.222;21.246;2023-05-10T14:18:27;20.42;;;3.15;;
22660;SDS011;11497;52.222;21.246;2023-05-10T14:20:55;6.13;;;2.60;;
22660;SDS011;11497;52.222;21.246;2023-05-10T14:23:23;7.13;;;2.70;;
22660;SDS011;11497;52.222;21.246;2023-05-10T14:25:51;6.28;;;2.75;;
22660;SDS011;11497;52.222;21.246;2023-05-10T14:28:19;10.93;;;2.60;;
22660;SDS011;11497;52.222;21.246;2023-05-10T14:30:49;6.35;;;2.90;;
22660;SDS011;11497;52.222;21.246;2023-05-10T14:33:17;6.95;;;2.65;;
22660;SDS011;11497;52.222;21.246;2023-05-10T14:35:45;5.85;;;2.90;;
22660;SDS011;11497;52.222;21.246;2023-05-10T14:38:14;4.82;;;2.38;;
22660;SDS011;11497;52.222;21.246;2023-05-10T14:40:42;5.68;;;2.78;;
22660;SDS011;11497;52.222;21.246;2023-05-10T14:43:10;6.22;;;2.92;;
22660;SDS011;11497;52.222;21.246;2023-05-10T14:45:38;4.35;;;2.20;;
22660;SDS011;11497;52.222;21.246;2023-05-10T14:48:06;5.03;;;2.45;;
22660;SDS011;11497;52.222;21.246;2023-05-10T14:50:37;5.20;;;2.58;;
22660;SDS011;11497;52.222;21.246;2023-05-10T14:53:06;5.35;;;2.88;;
22660;SDS011;11497;52.222;21.246;2023-05-10T14:55:34;4.28;;;2.50;;
22660;SDS011;11497;52.222;21.246;2023-05-10T14:58:03;5.75;;;2.47;;
22660;SDS011;11497;52.222;21.246;2023-05-10T15:00:31;5.80;;;2.30;;
22660;SDS011;11497;52.222;21.246;2023-05-10T15:02:59;4.22;;;2.53;;
22660;SDS011;11497;52.222;21.246;2023-05-10T15:05:28;3.53;;;2.33;;
22660;SDS011;11497;52.222;21.246;2023-05-10T15:07:56;6.82;;;2.35;;
22660;SDS011;11497;52.222;21.246;2023-05-10T15:10:24;8.95;;;2.63;;
22660;SDS011;11497;52.222;21.246;2023-05-10T15:12:52;10.10;;;2.70;;
22660;SDS011;11497;52.222;21.246;2023-05-10T15:15:20;3.58;;;2.70;;
22660;SDS011;11497;52.222;21.246;2023-05-10T15:17:48;6.32;;;2.35;;
22660;SDS011;11497;52.222;21.246;2023-05-10T15:20:16;6.85;;;2.75;;